sensor_id;sensor_type;location;lat;lon;timestamp;pressure;altitude;pressure_sealevel;temperature;humidity
7180;BME280;3631;42.152;24.756;2023-07-31T00:02:02;83987.28;;;-144.30;45.49
7180;BME280;3631;42.152;24.756;2023-07-31T00:04:52;83929.66;;;-144.30;45.60
7180;BME280;3631;42.152;24.756;2023-07-31T00:07:41;83959.44;;;-144.30;45.71
7180;BME280;3631;42.152;24.756;2023-07-31T00:10:39;83987.28;;;-144.30;45.87
7180;BME280;3631;42.152;24.756;2023-07-31T00:13:30;83923.69;;;-144.30;45.69
7180;BME280;3631;42.152;24.756;2023-07-31T00:16:27;83925.66;;;-144.30;45.58
7180;BME280;3631;42.152;24.756;2023-07-31T00:19:10;83983.28;;;-144.30;45.86
7180;BME280;3631;42.152;24.756;2023-07-31T00:22:07;83975.34;;;-144.30;45.95
7180;BME280;3631;42.152;24.756;2023-07-31T00:24:52;84001.19;;;-144.30;45.73
7180;BME280;3631;42.152;24.756;2023-07-31T00:27:35;83973.38;;;-144.30;45.63
7180;BME280;3631;42.152;24.756;2023-07-31T00:30:38;83945.53;;;-144.30;45.63
7180;BME280;3631;42.152;24.756;2023-07-31T00:33:25;83941.56;;;-144.30;45.34
7180;BME280;3631;42.152;24.756;2023-07-31T00:36:08;83969.38;;;-144.30;45.38
7180;BME280;3631;42.152;24.756;2023-07-31T00:38:53;83943.56;;;-144.30;45.44
7180;BME280;3631;42.152;24.756;2023-07-31T00:41:52;83945.53;;;-144.30;45.42
7180;BME280;3631;42.152;24.756;2023-07-31T00:44:37;83965.41;;;-144.30;45.44
7180;BME280;3631;42.152;24.756;2023-07-31T00:47:43;83937.59;;;-144.30;45.80
7180;BME280;3631;42.152;24.756;2023-07-31T00:50:26;83969.38;;;-144.30;45.50
7180;BME280;3631;42.152;24.756;2023-07-31T00:53:19;83945.53;;;-144.30;45.51
7180;BME280;3631;42.152;24.756;2023-07-31T00:56:10;83949.50;;;-144.30;45.77
7180;BME280;3631;42.152;24.756;2023-07-31T00:59:04;83981.31;;;-144.30;45.98
7180;BME280;3631;42.152;24.756;2023-07-31T01:01:50;83967.41;;;-144.30;45.83
7180;BME280;3631;42.152;24.756;2023-07-31T01:04:49;83937.59;;;-144.30;45.55
7180;BME280;3631;42.152;24.756;2023-07-31T01:07:49;83977.34;;;-144.30;45.64
7180;BME280;3631;42.152;24.756;2023-07-31T01:10:41;83933.63;;;-144.30;45.73
7180;BME280;3631;42.152;24.756;2023-07-31T01:13:31;83967.41;;;-144.30;45.78
7180;BME280;3631;42.152;24.756;2023-07-31T01:16:30;83913.75;;;-144.30;45.66
7180;BME280;3631;42.152;24.756;2023-07-31T01:19:27;83864.06;;;-144.30;45.85
7180;BME280;3631;42.152;24.756;2023-07-31T01:22:45;83953.50;;;-144.30;45.78
7180;BME280;3631;42.152;24.756;2023-07-31T01:25:59;83913.75;;;-144.30;46.12
7180;BME280;3631;42.152;24.756;2023-07-31T01:28:46;83959.44;;;-144.30;45.93
7180;BME280;3631;42.152;24.756;2023-07-31T01:31:35;83965.41;;;-144.30;46.02
7180;BME280;3631;42.152;24.756;2023-07-31T01:34:24;83961.44;;;-144.30;46.19
7180;BME280;3631;42.152;24.756;2023-07-31T01:37:05;83935.59;;;-144.30;46.19
7180;BME280;3631;42.152;24.756;2023-07-31T01:39:45;83967.41;;;-144.30;46.28
7180;BME280;3631;42.152;24.756;2023-07-31T01:42:48;83955.47;;;-144.30;45.95
7180;BME280;3631;42.152;24.756;2023-07-31T01:48:38;83967.41;;;-144.30;46.53
7180;BME280;3631;42.152;24.756;2023-07-31T01:51:37;83983.28;;;-144.30;46.47
7180;BME280;3631;42.152;24.756;2023-07-31T01:54:31;84015.09;;;-144.30;46.57
7180;BME280;3631;42.152;24.756;2023-07-31T01:57:23;84032.97;;;-144.30;46.83
7180;BME280;3631;42.152;24.756;2023-07-31T02:00:24;84013.09;;;-144.30;47.03
7180;BME280;3631;42.152;24.756;2023-07-31T02:03:18;83993.22;;;-144.30;47.19
7180;BME280;3631;42.152;24.756;2023-07-31T02:06:11;84009.13;;;-144.30;47.29
7180;BME280;3631;42.152;24.756;2023-07-31T02:09:01;84015.09;;;-144.30;47.58
7180;BME280;3631;42.152;24.756;2023-07-31T02:11:50;84044.91;;;-144.30;47.72
7180;BME280;3631;42.152;24.756;2023-07-31T02:14:43;84034.97;;;-144.30;47.81
7180;BME280;3631;42.152;24.756;2023-07-31T02:17:50;84036.94;;;-144.30;47.62
7180;BME280;3631;42.152;24.756;2023-07-31T02:20:35;83973.38;;;-144.30;47.31
7180;BME280;3631;42.152;24.756;2023-07-31T02:23:30;84029.00;;;-144.30;47.15
7180;BME280;3631;42.152;24.756;2023-07-31T02:26:16;84042.91;;;-144.30;47.32
7180;BME280;3631;42.152;24.756;2023-07-31T02:29:01;84005.16;;;-144.30;47.26
7180;BME280;3631;42.152;24.756;2023-07-31T02:31:50;84048.88;;;-144.30;47.49
7180;BME280;3631;42.152;24.756;2023-07-31T02:34:44;84031.00;;;-144.30;47.87
7180;BME280;3631;42.152;24.756;2023-07-31T02:37:30;84005.16;;;-144.30;48.33
7180;BME280;3631;42.152;24.756;2023-07-31T02:43:21;83977.34;;;-144.30;49.41
7180;BME280;3631;42.152;24.756;2023-07-31T02:46:21;83963.44;;;-144.30;50.25
7180;BME280;3631;42.152;24.756;2023-07-31T02:49:13;83989.25;;;-144.30;50.95
7180;BME280;3631;42.152;24.756;2023-07-31T02:52:12;83929.66;;;-144.30;51.59
7180;BME280;3631;42.152;24.756;2023-07-31T02:54:54;83993.22;;;-144.30;52.12
7180;BME280;3631;42.152;24.756;2023-07-31T02:57:48;83991.25;;;-144.30;53.17
7180;BME280;3631;42.152;24.756;2023-07-31T03:00:35;83973.38;;;-144.30;53.67
7180;BME280;3631;42.152;24.756;2023-07-31T03:03:24;83983.28;;;-144.30;54.38
7180;BME280;3631;42.152;24.756;2023-07-31T03:06:16;83967.41;;;-144.30;55.31
7180;BME280;3631;42.152;24.756;2023-07-31T03:08:47;83961.44;;;-144.30;55.95
7180;BME280;3631;42.152;24.756;2023-07-31T03:11:18;83987.28;;;-144.30;56.84
7180;BME280;3631;42.152;24.756;2023-07-31T03:13:47;83979.31;;;-144.30;57.39
7180;BME280;3631;42.152;24.756;2023-07-31T03:16:16;83967.41;;;-144.30;57.92
7180;BME280;3631;42.152;24.756;2023-07-31T03:18:49;83957.47;;;-144.30;58.72
7180;BME280;3631;42.152;24.756;2023-07-31T03:21:28;84003.16;;;-144.30;62.05
7180;BME280;3631;42.152;24.756;2023-07-31T03:24:15;83989.25;;;-144.30;66.03
7180;BME280;3631;42.152;24.756;2023-07-31T03:26:49;83997.22;;;-144.30;72.86
7180;BME280;3631;42.152;24.756;2023-07-31T03:29:33;84086.63;;;-144.30;74.29
7180;BME280;3631;42.152;24.756;2023-07-31T03:32:17;84092.59;;;-144.30;79.75
7180;BME280;3631;42.152;24.756;2023-07-31T03:34:59;84104.50;;;-144.30;79.72
7180;BME280;3631;42.152;24.756;2023-07-31T03:37:34;84136.31;;;-144.30;83.12
7180;BME280;3631;42.152;24.756;2023-07-31T03:40:08;84189.97;;;-144.30;84.80
7180;BME280;3631;42.152;24.756;2023-07-31T03:42:53;84193.94;;;-144.30;85.19
7180;BME280;3631;42.152;24.756;2023-07-31T03:45:46;84164.13;;;-144.30;85.67
7180;BME280;3631;42.152;24.756;2023-07-31T03:48:20;84187.97;;;-144.30;85.50
7180;BME280;3631;42.152;24.756;2023-07-31T03:50:54;84203.88;;;-144.30;87.88
7180;BME280;3631;42.152;24.756;2023-07-31T03:53:26;84191.94;;;-144.30;89.27
7180;BME280;3631;42.152;24.756;2023-07-31T03:56:18;84209.84;;;-144.30;90.69
7180;BME280;3631;42.152;24.756;2023-07-31T03:59:11;84239.66;;;-144.30;90.27
7180;BME280;3631;42.152;24.756;2023-07-31T04:02:00;84279.38;;;-144.30;92.26
7180;BME280;3631;42.152;24.756;2023-07-31T04:04:44;84271.44;;;-144.30;93.22
7180;BME280;3631;42.152;24.756;2023-07-31T04:07:32;84315.16;;;-144.30;92.55
7180;BME280;3631;42.152;24.756;2023-07-31T04:10:15;84346.97;;;-144.30;93.26
7180;BME280;3631;42.152;24.756;2023-07-31T04:13:23;84354.91;;;-144.30;93.46
7180;BME280;3631;42.152;24.756;2023-07-31T04:16:08;84323.13;;;-144.30;93.34
7180;BME280;3631;42.152;24.756;2023-07-31T04:19:01;84348.94;;;-144.30;93.85
7180;BME280;3631;42.152;24.756;2023-07-31T04:21:48;84350.94;;;-144.30;94.60
7180;BME280;3631;42.152;24.756;2023-07-31T04:24:22;84348.94;;;-144.30;95.85
7180;BME280;3631;42.152;24.756;2023-07-31T04:26:59;84362.84;;;-144.30;95.68
7180;BME280;3631;42.152;24.756;2023-07-31T04:29:41;84370.81;;;-144.30;95.15
7180;BME280;3631;42.152;24.756;2023-07-31T04:32:18;84366.84;;;-144.30;96.10
7180;BME280;3631;42.152;24.756;2023-07-31T04:35:01;84368.81;;;-144.30;95.13
7180;BME280;3631;42.152;24.756;2023-07-31T04:37:39;84350.94;;;-144.30;93.57
7180;BME280;3631;42.152;24.756;2023-07-31T04:40:17;84337.03;;;-144.30;93.99
7180;BME280;3631;42.152;24.756;2023-07-31T04:42:48;84321.13;;;-144.30;93.73
7180;BME280;3631;42.152;24.756;2023-07-31T04:45:31;84335.03;;;-144.30;93.24
7180;BME280;3631;42.152;24.756;2023-07-31T04:48:08;84301.25;;;-144.30;93.25
7180;BME280;3631;42.152;24.756;2023-07-31T04:50:42;84327.09;;;-144.30;93.41
7180;BME280;3631;42.152;24.756;2023-07-31T04:53:23;84301.25;;;-144.30;92.83
7180;BME280;3631;42.152;24.756;2023-07-31T04:56:04;84289.31;;;-144.30;92.50
7180;BME280;3631;42.152;24.756;2023-07-31T04:58:39;84281.38;;;-144.30;92.23
7180;BME280;3631;42.152;24.756;2023-07-31T05:01:18;84293.31;;;-144.30;91.70
7180;BME280;3631;42.152;24.756;2023-07-31T05:04:04;84255.53;;;-144.30;90.86
7180;BME280;3631;42.152;24.756;2023-07-31T05:06:51;84245.59;;;-144.30;90.56
7180;BME280;3631;42.152;24.756;2023-07-31T05:09:34;84195.94;;;-144.30;89.39
7180;BME280;3631;42.152;24.756;2023-07-31T05:12:29;84215.78;;;-144.30;88.96
7180;BME280;3631;42.152;24.756;2023-07-31T05:15:10;84187.97;;;-144.30;87.72
7180;BME280;3631;42.152;24.756;2023-07-31T05:17:57;84160.16;;;-144.30;86.50
7180;BME280;3631;42.152;24.756;2023-07-31T05:20:55;84160.16;;;-144.30;86.57
7180;BME280;3631;42.152;24.756;2023-07-31T05:23:50;84172.06;;;-144.30;86.31
7180;BME280;3631;42.152;24.756;2023-07-31T05:26:44;84164.13;;;-144.30;85.20
7180;BME280;3631;42.152;24.756;2023-07-31T05:29:41;84160.16;;;-144.30;85.74
7180;BME280;3631;42.152;24.756;2023-07-31T05:32:31;84136.31;;;-144.30;84.61
7180;BME280;3631;42.152;24.756;2023-07-31T05:35:28;84068.75;;;-144.30;84.18
7180;BME280;3631;42.152;24.756;2023-07-31T05:38:17;83943.56;;;-144.30;80.75
7180;BME280;3631;42.152;24.756;2023-07-31T05:41:06;83786.56;;;-144.30;76.54
7180;BME280;3631;42.152;24.756;2023-07-31T05:43:51;83645.50;;;-144.30;72.95
7180;BME280;3631;42.152;24.756;2023-07-31T05:46:43;83645.50;;;-144.30;70.80
7180;BME280;3631;42.152;24.756;2023-07-31T05:49:39;83619.66;;;-144.30;69.92
7180;BME280;3631;42.152;24.756;2023-07-31T05:52:32;83615.69;;;-144.30;69.23
7180;BME280;3631;42.152;24.756;2023-07-31T05:55:26;83669.34;;;-144.30;69.63
7180;BME280;3631;42.152;24.756;2023-07-31T05:58:19;83613.72;;;-144.30;67.65
7180;BME280;3631;42.152;24.756;2023-07-31T06:01:17;83377.28;;;-144.30;65.97
7180;BME280;3631;42.152;24.756;2023-07-31T06:04:10;83103.13;;;-144.30;61.16
7180;BME280;3631;42.152;24.756;2023-07-31T06:07:08;82805.13;;;-144.30;57.04
7180;BME280;3631;42.152;24.756;2023-07-31T06:10:15;82650.19;;;-144.30;53.83
7180;BME280;3631;42.152;24.756;2023-07-31T06:13:02;82487.31;;;-144.30;51.92
7180;BME280;3631;42.152;24.756;2023-07-31T06:15:51;82175.50;;;-144.30;48.86
7180;BME280;3631;42.152;24.756;2023-07-31T06:18:40;81859.72;;;-144.30;46.09
7180;BME280;3631;42.152;24.756;2023-07-31T06:21:29;81688.94;;;-144.30;44.74
7180;BME280;3631;42.152;24.756;2023-07-31T06:24:23;81516.16;;;-144.30;42.37
7180;BME280;3631;42.152;24.756;2023-07-31T06:27:21;81492.34;;;-144.30;41.69
7180;BME280;3631;42.152;24.756;2023-07-31T06:30:18;81369.22;;;-144.30;40.95
7180;BME280;3631;42.152;24.756;2023-07-31T06:33:10;81121.03;;;-144.30;39.03
7180;BME280;3631;42.152;24.756;2023-07-31T06:36:00;80940.38;;;-144.30;37.86
7180;BME280;3631;42.152;24.756;2023-07-31T06:38:41;80938.38;;;-144.30;37.52
7180;BME280;3631;42.152;24.756;2023-07-31T06:41:30;81091.25;;;-144.30;38.64
7180;BME280;3631;42.152;24.756;2023-07-31T06:44:31;81085.31;;;-144.30;38.24
7180;BME280;3631;42.152;24.756;2023-07-31T06:47:29;81331.50;;;-144.30;39.36
7180;BME280;3631;42.152;24.756;2023-07-31T06:50:18;81345.41;;;-144.30;39.36
7180;BME280;3631;42.152;24.756;2023-07-31T06:53:10;81359.31;;;-144.30;39.50
7180;BME280;3631;42.152;24.756;2023-07-31T06:56:04;81516.16;;;-144.30;39.56
7180;BME280;3631;42.152;24.756;2023-07-31T06:58:50;81595.59;;;-144.30;40.16
7180;BME280;3631;42.152;24.756;2023-07-31T07:01:56;81669.06;;;-144.30;40.65
7180;BME280;3631;42.152;24.756;2023-07-31T07:04:43;81750.50;;;-144.30;41.64
7180;BME280;3631;42.152;24.756;2023-07-31T07:07:35;81718.72;;;-144.30;41.24
7180;BME280;3631;42.152;24.756;2023-07-31T07:10:13;81571.78;;;-144.30;40.14
7180;BME280;3631;42.152;24.756;2023-07-31T07:12:54;81430.78;;;-144.30;39.52
7180;BME280;3631;42.152;24.756;2023-07-31T07:15:36;81669.06;;;-144.30;40.66
7180;BME280;3631;42.152;24.756;2023-07-31T07:18:31;81895.47;;;-144.30;42.20
7180;BME280;3631;42.152;24.756;2023-07-31T07:21:24;81974.91;;;-144.30;42.92
7180;BME280;3631;42.152;24.756;2023-07-31T07:24:22;81772.34;;;-144.30;42.61
7180;BME280;3631;42.152;24.756;2023-07-31T07:27:12;81609.50;;;-144.30;40.87
7180;BME280;3631;42.152;24.756;2023-07-31T07:30:07;81500.28;;;-144.30;40.92
7180;BME280;3631;42.152;24.756;2023-07-31T07:33:05;81335.47;;;-144.30;39.44
7180;BME280;3631;42.152;24.756;2023-07-31T07:36:12;81389.09;;;-144.30;39.75
7180;BME280;3631;42.152;24.756;2023-07-31T07:39:20;81240.16;;;-144.30;39.24
7180;BME280;3631;42.152;24.756;2023-07-31T07:42:15;81162.72;;;-144.30;38.12
7180;BME280;3631;42.152;24.756;2023-07-31T07:45:06;81214.34;;;-144.30;38.31
7180;BME280;3631;42.152;24.756;2023-07-31T07:47:52;81176.63;;;-144.30;37.92
7180;BME280;3631;42.152;24.756;2023-07-31T07:50:51;81025.72;;;-144.30;37.83
7180;BME280;3631;42.152;24.756;2023-07-31T07:56:53;81079.34;;;-144.30;36.46
7180;BME280;3631;42.152;24.756;2023-07-31T07:59:46;81067.44;;;-144.30;36.55
7180;BME280;3631;42.152;24.756;2023-07-31T08:02:45;80906.63;;;-144.30;36.46
7180;BME280;3631;42.152;24.756;2023-07-31T08:05:52;80751.75;;;-144.30;35.63
7180;BME280;3631;42.152;24.756;2023-07-31T08:09:01;80616.75;;;-144.30;34.96
7180;BME280;3631;42.152;24.756;2023-07-31T08:11:55;80628.69;;;-144.30;34.98
7180;BME280;3631;42.152;24.756;2023-07-31T08:14:45;80604.84;;;-144.30;34.99
7180;BME280;3631;42.152;24.756;2023-07-31T08:17:57;80432.16;;;-144.30;33.13
7180;BME280;3631;42.152;24.756;2023-07-31T08:20:46;80263.41;;;-144.30;32.35
7180;BME280;3631;42.152;24.756;2023-07-31T08:23:33;80696.16;;;-144.30;33.54
7180;BME280;3631;42.152;24.756;2023-07-31T08:26:39;80729.91;;;-144.30;34.17
7180;BME280;3631;42.152;24.756;2023-07-31T08:29:37;80618.75;;;-144.30;33.09
7180;BME280;3631;42.152;24.756;2023-07-31T08:32:29;80727.94;;;-144.30;33.31
7180;BME280;3631;42.152;24.756;2023-07-31T08:35:36;80783.53;;;-144.30;33.44
7180;BME280;3631;42.152;24.756;2023-07-31T08:38:29;81007.88;;;-144.30;33.60
7180;BME280;3631;42.152;24.756;2023-07-31T08:41:15;81160.75;;;-144.30;35.02
7180;BME280;3631;42.152;24.756;2023-07-31T08:44:10;81204.44;;;-144.30;35.97
7180;BME280;3631;42.152;24.756;2023-07-31T08:47:05;81240.16;;;-144.30;36.21
7180;BME280;3631;42.152;24.756;2023-07-31T08:49:57;81144.88;;;-144.30;35.56
7180;BME280;3631;42.152;24.756;2023-07-31T08:52:45;81180.59;;;-144.30;35.61
7180;BME280;3631;42.152;24.756;2023-07-31T08:55:32;81128.97;;;-144.30;34.84
7180;BME280;3631;42.152;24.756;2023-07-31T08:58:18;81105.16;;;-144.30;34.49
7180;BME280;3631;42.152;24.756;2023-07-31T09:01:14;81174.66;;;-144.30;34.74
7180;BME280;3631;42.152;24.756;2023-07-31T09:04:05;81180.59;;;-144.30;35.31
7180;BME280;3631;42.152;24.756;2023-07-31T09:07:03;81295.75;;;-144.30;35.34
7180;BME280;3631;42.152;24.756;2023-07-31T09:09:52;81518.16;;;-144.30;36.24
7180;BME280;3631;42.152;24.756;2023-07-31T09:12:44;81534.03;;;-144.30;36.72
7180;BME280;3631;42.152;24.756;2023-07-31T09:15:34;81484.41;;;-144.30;36.42
7180;BME280;3631;42.152;24.756;2023-07-31T09:18:31;81526.09;;;-144.30;36.38
7180;BME280;3631;42.152;24.756;2023-07-31T09:21:25;81524.13;;;-144.30;36.53
7180;BME280;3631;42.152;24.756;2023-07-31T09:24:29;81490.34;;;-144.30;36.48
7180;BME280;3631;42.152;24.756;2023-07-31T09:27:19;81248.13;;;-144.30;35.30
7180;BME280;3631;42.152;24.756;2023-07-31T09:30:12;81315.63;;;-144.30;35.40
7180;BME280;3631;42.152;24.756;2023-07-31T09:33:10;81301.72;;;-144.30;34.89
7180;BME280;3631;42.152;24.756;2023-07-31T09:36:17;81152.81;;;-144.30;34.78
7180;BME280;3631;42.152;24.756;2023-07-31T09:39:15;81128.97;;;-144.30;34.64
7180;BME280;3631;42.152;24.756;2023-07-31T09:42:07;81125.00;;;-144.30;33.82
7180;BME280;3631;42.152;24.756;2023-07-31T09:44:56;81099.19;;;-144.30;33.76
7180;BME280;3631;42.152;24.756;2023-07-31T09:47:57;81113.09;;;-144.30;33.23
7180;BME280;3631;42.152;24.756;2023-07-31T09:50:59;81067.44;;;-144.30;33.40
7180;BME280;3631;42.152;24.756;2023-07-31T09:54:18;81095.22;;;-144.30;32.93
7180;BME280;3631;42.152;24.756;2023-07-31T09:57:04;81311.66;;;-144.30;33.37
7180;BME280;3631;42.152;24.756;2023-07-31T09:59:55;81486.38;;;-144.30;34.38
7180;BME280;3631;42.152;24.756;2023-07-31T10:02:58;81760.41;;;-144.30;35.74
7180;BME280;3631;42.152;24.756;2023-07-31T10:05:49;81617.44;;;-144.30;35.58
7180;BME280;3631;42.152;24.756;2023-07-31T10:08:47;81611.47;;;-144.30;35.49
7180;BME280;3631;42.152;24.756;2023-07-31T10:11:49;81607.50;;;-144.30;35.73
7180;BME280;3631;42.152;24.756;2023-07-31T10:14:42;81595.59;;;-144.30;35.74
7180;BME280;3631;42.152;24.756;2023-07-31T10:17:33;81534.03;;;-144.30;35.71
7180;BME280;3631;42.152;24.756;2023-07-31T10:20:30;81534.03;;;-144.30;35.48
7180;BME280;3631;42.152;24.756;2023-07-31T10:23:27;81498.31;;;-144.30;34.98
7180;BME280;3631;42.152;24.756;2023-07-31T10:26:25;81514.19;;;-144.30;34.83
7180;BME280;3631;42.152;24.756;2023-07-31T10:32:22;81686.94;;;-144.30;35.92
7180;BME280;3631;42.152;24.756;2023-07-31T10:35:11;81780.28;;;-144.30;36.19
7180;BME280;3631;42.152;24.756;2023-07-31T10:37:55;81810.06;;;-144.30;35.20
7180;BME280;3631;42.152;24.756;2023-07-31T10:40:34;81827.94;;;-144.30;35.27
7180;BME280;3631;42.152;24.756;2023-07-31T10:43:30;81810.06;;;-144.30;35.65
7180;BME280;3631;42.152;24.756;2023-07-31T10:46:22;81909.38;;;-144.30;35.78
7180;BME280;3631;42.152;24.756;2023-07-31T10:49:15;81855.75;;;-144.30;35.32
7180;BME280;3631;42.152;24.756;2023-07-31T10:52:16;81831.91;;;-144.30;36.27
7180;BME280;3631;42.152;24.756;2023-07-31T10:55:36;81887.53;;;-144.30;36.01
7180;BME280;3631;42.152;24.756;2023-07-31T10:58:45;81903.41;;;-144.30;36.20
7180;BME280;3631;42.152;24.756;2023-07-31T11:01:55;81911.34;;;-144.30;35.97
7180;BME280;3631;42.152;24.756;2023-07-31T11:04:46;81949.09;;;-144.30;35.68
7180;BME280;3631;42.152;24.756;2023-07-31T11:08:03;81895.47;;;-144.30;35.82
7180;BME280;3631;42.152;24.756;2023-07-31T11:11:16;81951.06;;;-144.30;37.96
7180;BME280;3631;42.152;24.756;2023-07-31T11:14:28;82066.25;;;-144.30;39.80
7180;BME280;3631;42.152;24.756;2023-07-31T11:17:18;82024.56;;;-144.30;40.89
7180;BME280;3631;42.152;24.756;2023-07-31T11:20:10;82441.63;;;-144.30;43.72
7180;BME280;3631;42.152;24.756;2023-07-31T11:23:01;82588.63;;;-144.30;46.26
7180;BME280;3631;42.152;24.756;2023-07-31T11:26:14;82761.44;;;-144.30;47.87
7180;BME280;3631;42.152;24.756;2023-07-31T11:29:31;82838.91;;;-144.30;48.74
7180;BME280;3631;42.152;24.756;2023-07-31T11:32:29;82981.94;;;-144.30;49.53
7180;BME280;3631;42.152;24.756;2023-07-31T11:35:26;83001.78;;;-144.30;49.76
7180;BME280;3631;42.152;24.756;2023-07-31T11:38:30;83063.38;;;-144.30;50.02
7180;BME280;3631;42.152;24.756;2023-07-31T11:41:24;83061.41;;;-144.30;50.26
7180;BME280;3631;42.152;24.756;2023-07-31T11:44:25;83025.63;;;-144.30;49.38
7180;BME280;3631;42.152;24.756;2023-07-31T11:47:22;83005.78;;;-144.30;48.86
7180;BME280;3631;42.152;24.756;2023-07-31T11:50:13;82932.28;;;-144.30;48.09
7180;BME280;3631;42.152;24.756;2023-07-31T11:53:05;82896.50;;;-144.30;47.41
7180;BME280;3631;42.152;24.756;2023-07-31T11:55:45;82817.06;;;-144.30;46.72
7180;BME280;3631;42.152;24.756;2023-07-31T11:58:23;82809.09;;;-144.30;46.41
7180;BME280;3631;42.152;24.756;2023-07-31T12:01:13;82803.16;;;-144.30;45.84
7180;BME280;3631;42.152;24.756;2023-07-31T12:04:19;82799.19;;;-144.30;45.88
7180;BME280;3631;42.152;24.756;2023-07-31T12:07:15;82866.72;;;-144.30;46.14
7180;BME280;3631;42.152;24.756;2023-07-31T12:10:11;82896.50;;;-144.30;47.21
7180;BME280;3631;42.152;24.756;2023-07-31T12:13:06;82836.91;;;-144.30;47.00
7180;BME280;3631;42.152;24.756;2023-07-31T12:15:57;82795.19;;;-144.30;46.52
7180;BME280;3631;42.152;24.756;2023-07-31T12:18:41;82741.56;;;-144.30;45.82
7180;BME280;3631;42.152;24.756;2023-07-31T12:21:42;82828.97;;;-144.30;45.60
7180;BME280;3631;42.152;24.756;2023-07-31T12:24:36;82813.06;;;-144.30;45.20
7180;BME280;3631;42.152;24.756;2023-07-31T12:27:37;82773.34;;;-144.30;44.87
7180;BME280;3631;42.152;24.756;2023-07-31T12:30:45;82737.59;;;-144.30;44.40
7180;BME280;3631;42.152;24.756;2023-07-31T12:33:36;82719.72;;;-144.30;43.79
7180;BME280;3631;42.152;24.756;2023-07-31T12:36:37;82745.53;;;-144.30;43.55
7180;BME280;3631;42.152;24.756;2023-07-31T12:39:26;82717.72;;;-144.30;42.95
7180;BME280;3631;42.152;24.756;2023-07-31T12:42:16;82711.78;;;-144.30;41.37
7180;BME280;3631;42.152;24.756;2023-07-31T12:45:12;82672.03;;;-144.30;40.25
7180;BME280;3631;42.152;24.756;2023-07-31T12:48:12;82588.63;;;-144.30;39.97
7180;BME280;3631;42.152;24.756;2023-07-31T12:51:15;82542.94;;;-144.30;39.19
7180;BME280;3631;42.152;24.756;2023-07-31T12:54:06;82564.78;;;-144.30;42.14
7180;BME280;3631;42.152;24.756;2023-07-31T12:56:39;82602.53;;;-144.30;42.66
7180;BME280;3631;42.152;24.756;2023-07-31T12:59:22;82630.34;;;-144.30;42.73
7180;BME280;3631;42.152;24.756;2023-07-31T13:02:10;82703.81;;;-144.30;42.35
7180;BME280;3631;42.152;24.756;2023-07-31T13:05:01;82701.84;;;-144.30;42.50
7180;BME280;3631;42.152;24.756;2023-07-31T13:07:59;82703.81;;;-144.30;41.85
7180;BME280;3631;42.152;24.756;2023-07-31T13:11:06;82723.69;;;-144.30;41.09
7180;BME280;3631;42.152;24.756;2023-07-31T13:13:57;82729.66;;;-144.30;41.04
7180;BME280;3631;42.152;24.756;2023-07-31T13:16:41;82681.97;;;-144.30;40.77
7180;BME280;3631;42.152;24.756;2023-07-31T13:19:26;82745.53;;;-144.30;45.92
7180;BME280;3631;42.152;24.756;2023-07-31T13:22:24;82797.19;;;-144.30;48.44
7180;BME280;3631;42.152;24.756;2023-07-31T13:25:24;82836.91;;;-144.30;48.42
7180;BME280;3631;42.152;24.756;2023-07-31T13:28:39;82807.13;;;-144.30;48.44
7180;BME280;3631;42.152;24.756;2023-07-31T13:31:38;82825.00;;;-144.30;47.96
7180;BME280;3631;42.152;24.756;2023-07-31T13:34:23;82826.97;;;-144.30;47.66
7180;BME280;3631;42.152;24.756;2023-07-31T13:37:17;82852.81;;;-144.30;46.59
7180;BME280;3631;42.152;24.756;2023-07-31T13:40:08;82828.97;;;-144.30;46.29
7180;BME280;3631;42.152;24.756;2023-07-31T13:42:53;82876.66;;;-144.30;48.01
7180;BME280;3631;42.152;24.756;2023-07-31T13:45:38;82894.53;;;-144.30;48.72
7180;BME280;3631;42.152;24.756;2023-07-31T13:51:35;82952.13;;;-144.30;48.64
7180;BME280;3631;42.152;24.756;2023-07-31T13:54:38;83015.69;;;-144.30;48.32
7180;BME280;3631;42.152;24.756;2023-07-31T13:57:28;82997.81;;;-144.30;48.90
7180;BME280;3631;42.152;24.756;2023-07-31T14:00:15;83007.75;;;-144.30;49.05
7180;BME280;3631;42.152;24.756;2023-07-31T14:03:05;83015.69;;;-144.30;48.78
7180;BME280;3631;42.152;24.756;2023-07-31T14:05:44;83029.59;;;-144.30;49.05
7180;BME280;3631;42.152;24.756;2023-07-31T14:08:42;83063.38;;;-144.30;49.12
7180;BME280;3631;42.152;24.756;2023-07-31T14:11:30;83057.41;;;-144.30;49.24
7180;BME280;3631;42.152;24.756;2023-07-31T14:14:21;83059.41;;;-144.30;49.34
7180;BME280;3631;42.152;24.756;2023-07-31T14:17:23;83067.34;;;-144.30;49.42
7180;BME280;3631;42.152;24.756;2023-07-31T14:20:27;83039.53;;;-144.30;48.56
7180;BME280;3631;42.152;24.756;2023-07-31T14:23:25;83055.44;;;-144.30;48.86
7180;BME280;3631;42.152;24.756;2023-07-31T14:26:19;83087.22;;;-144.30;50.65
7180;BME280;3631;42.152;24.756;2023-07-31T14:29:12;83069.34;;;-144.30;51.06
7180;BME280;3631;42.152;24.756;2023-07-31T14:32:10;83035.56;;;-144.30;50.44
7180;BME280;3631;42.152;24.756;2023-07-31T14:34:59;83053.44;;;-144.30;49.97
7180;BME280;3631;42.152;24.756;2023-07-31T14:38:00;83019.69;;;-144.30;49.21
7180;BME280;3631;42.152;24.756;2023-07-31T14:40:53;83027.63;;;-144.30;48.98
7180;BME280;3631;42.152;24.756;2023-07-31T14:43:44;83001.78;;;-144.30;48.71
7180;BME280;3631;42.152;24.756;2023-07-31T14:46:39;83023.66;;;-144.30;48.43
7180;BME280;3631;42.152;24.756;2023-07-31T14:49:28;82975.97;;;-144.30;47.79
7180;BME280;3631;42.152;24.756;2023-07-31T14:52:24;83035.56;;;-144.30;49.70
7180;BME280;3631;42.152;24.756;2023-07-31T14:55:26;83029.59;;;-144.30;50.53
7180;BME280;3631;42.152;24.756;2023-07-31T14:58:10;83083.25;;;-144.30;50.43
7180;BME280;3631;42.152;24.756;2023-07-31T15:00:58;83081.25;;;-144.30;51.25
7180;BME280;3631;42.152;24.756;2023-07-31T15:03:41;83101.13;;;-144.30;51.33
7180;BME280;3631;42.152;24.756;2023-07-31T15:06:34;83097.16;;;-144.30;51.41
7180;BME280;3631;42.152;24.756;2023-07-31T15:09:29;83087.22;;;-144.30;51.50
7180;BME280;3631;42.152;24.756;2023-07-31T15:12:31;83019.69;;;-144.30;51.75
7180;BME280;3631;42.152;24.756;2023-07-31T15:15:11;83107.09;;;-144.30;51.23